Time;durP1;ratioP1;P1;durP2;ratioP2;P2;SDS_P1;SDS_P2;PMS_P1;PMS_P2;Temp;Humidity;BMP_temperature;BMP_pressure;BME280_temperature;BME280_humidity;BME280_pressure;Samples;Min_cycle;Max_cycle;Signal;HPM_P1;HPM_P2
2022/12/12 00:01:34;;;;;;;16.95;6.32;;;0.50;99.90;;;;;;5107448;28;20043;-68
2022/12/12 00:04:00;;;;;;;18.05;6.40;;;0.60;99.90;;;;;;5088924;28;20077;-68
2022/12/12 00:06:27;;;;;;;14.88;6.05;;;0.60;99.90;;;;;;5110629;28;20122;-67
2022/12/12 00:08:54;;;;;;;19.75;6.30;;;0.60;99.90;;;;;;5110002;28;20492;-68
2022/12/12 00:11:20;;;;;;;18.13;6.78;;;0.60;99.90;;;;;;5102914;28;20046;-68
2022/12/12 00:13:46;;;;;;;20.17;7.22;;;0.60;99.90;;;;;;5089755;28;20062;-67
2022/12/12 00:16:12;;;;;;;21.80;7.25;;;0.50;99.90;;;;;;5095142;28;20047;-68
2022/12/12 00:18:38;;;;;;;19.58;8.15;;;0.50;99.90;;;;;;5081948;28;20490;-70
2022/12/12 00:21:15;;;;;;;20.15;7.05;;;0.50;99.90;;;;;;5066181;28;20048;-67
2022/12/12 00:23:41;;;;;;;21.27;7.90;;;0.50;99.90;;;;;;5081555;28;20112;-70
2022/12/12 00:26:14;;;;;;;18.80;7.55;;;0.40;99.90;;;;;;5071910;28;20056;-67
2022/12/12 00:28:39;;;;;;;16.63;6.40;;;0.40;99.90;;;;;;5070485;28;20110;-71
2022/12/12 00:31:05;;;;;;;20.70;7.35;;;0.30;99.90;;;;;;5079431;28;20048;-67
2022/12/12 00:33:31;;;;;;;19.35;6.28;;;0.30;99.90;;;;;;5088078;28;20090;-69
2022/12/12 00:35:56;;;;;;;17.25;6.43;;;0.30;99.90;;;;;;5086116;28;20032;-68
2022/12/12 00:38:23;;;;;;;21.70;7.82;;;0.30;99.90;;;;;;5084935;28;20036;-68
2022/12/12 00:40:53;;;;;;;22.13;7.38;;;0.30;99.90;;;;;;5075803;28;20044;-68
2022/12/12 00:43:19;;;;;;;24.80;7.97;;;0.30;99.90;;;;;;5070213;28;20105;-69
2022/12/12 00:45:45;;;;;;;20.17;6.25;;;0.30;99.90;;;;;;5078017;28;20041;-68
2022/12/12 00:48:11;;;;;;;20.23;8.32;;;0.30;99.90;;;;;;5070228;28;20478;-68
2022/12/12 00:50:36;;;;;;;19.90;7.60;;;0.30;99.90;;;;;;5069146;28;20498;-68
2022/12/12 00:53:02;;;;;;;21.58;7.45;;;0.30;99.90;;;;;;5069830;28;20116;-68
2022/12/12 00:55:28;;;;;;;;;;;0.20;99.90;;;;;;5069836;28;20485;-68
2022/12/12 00:57:54;;;;;;;18.38;6.28;;;0.20;99.90;;;;;;5062616;28;19993;-68
2022/12/12 01:00:21;;;;;;;18.88;6.95;;;0.20;99.90;;;;;;5084246;28;20453;-68
2022/12/12 01:02:47;;;;;;;22.17;7.78;;;0.20;99.90;;;;;;5080185;28;20052;-68
2022/12/12 01:05:13;;;;;;;;;;;0.20;99.90;;;;;;5070912;28;20102;-68
2022/12/12 01:07:39;;;;;;;16.97;6.50;;;0.20;99.90;;;;;;5074519;28;19931;-68
2022/12/12 01:10:05;;;;;;;;;;;0.30;99.90;;;;;;5088549;28;20442;-67
2022/12/12 01:12:31;;;;;;;16.90;6.43;;;0.30;99.90;;;;;;5083892;28;19978;-68
2022/12/12 01:14:57;;;;;;;21.08;6.25;;;0.30;99.90;;;;;;5069309;28;20140;-68
2022/12/12 01:17:23;;;;;;;20.65;7.47;;;0.30;99.90;;;;;;5073746;28;20126;-69
2022/12/12 01:19:49;;;;;;;20.52;6.47;;;0.30;99.90;;;;;;5102677;28;20044;-68
2022/12/12 01:22:14;;;;;;;18.40;6.32;;;0.30;99.90;;;;;;5091901;28;20055;-68
2022/12/12 01:24:40;;;;;;;18.23;7.20;;;0.30;99.90;;;;;;5073268;28;20055;-68
2022/12/12 01:27:06;;;;;;;17.15;6.57;;;0.30;99.90;;;;;;5055075;28;20084;-68
2022/12/12 01:29:35;;;;;;;16.55;6.85;;;0.30;99.90;;;;;;5104665;28;20054;-68
2022/12/12 01:32:00;;;;;;;19.13;6.72;;;0.50;99.90;;;;;;5093303;28;20101;-68
2022/12/12 01:34:26;;;;;;;19.52;7.68;;;0.30;99.90;;;;;;5053725;28;20052;-69
2022/12/12 01:36:52;;;;;;;17.52;7.15;;;0.30;99.90;;;;;;5083331;28;20048;-68
2022/12/12 01:39:18;;;;;;;20.40;7.38;;;0.40;99.90;;;;;;5075438;28;20067;-68
2022/12/12 01:41:44;;;;;;;24.10;7.78;;;0.30;99.90;;;;;;5093011;28;20052;-68
2022/12/12 01:44:38;;;;;;;17.55;7.38;;;0.30;99.90;;;;;;5093025;28;20040;-70
2022/12/12 01:47:04;;;;;;;22.45;7.88;;;0.30;99.90;;;;;;5088322;28;20077;-68
2022/12/12 01:49:32;;;;;;;21.63;7.55;;;0.30;99.90;;;;;;5075381;28;20819;-68
2022/12/12 01:52:03;;;;;;;21.25;8.50;;;0.30;99.90;;;;;;5097312;28;20051;-68
2022/12/12 01:54:33;;;;;;;20.40;8.43;;;0.30;99.90;;;;;;5104513;28;20043;-68
2022/12/12 01:57:03;;;;;;;20.15;7.13;;;0.30;99.90;;;;;;5113078;28;20039;-68
2022/12/12 01:59:32;;;;;;;21.80;7.97;;;0.30;99.90;;;;;;5113850;28;20051;-68
2022/12/12 02:01:58;;;;;;;21.95;7.20;;;0.30;99.90;;;;;;5096419;28;20131;-68
2022/12/12 02:04:26;;;;;;;;;;;0.30;99.90;;;;;;5092523;28;20063;-68
2022/12/12 02:06:54;;;;;;;19.23;6.63;;;0.30;99.90;;;;;;5074605;28;19919;-68
2022/12/12 02:09:21;;;;;;;17.00;6.53;;;0.30;99.90;;;;;;5093577;28;20506;-68
2022/12/12 02:11:49;;;;;;;22.80;7.55;;;0.30;99.90;;;;;;5111388;28;20058;-71
2022/12/12 02:14:21;;;;;;;17.55;6.65;;;0.30;99.90;;;;;;5113697;28;20083;-68
2022/12/12 02:17:17;;;;;;;17.70;7.03;;;0.30;99.90;;;;;;5095236;28;20063;-71
2022/12/12 02:19:49;;;;;;;13.98;5.57;;;0.30;99.90;;;;;;5094306;28;20047;-68
2022/12/12 02:22:26;;;;;;;20.45;7.97;;;0.30;99.90;;;;;;5095724;28;20189;-68
2022/12/12 02:25:27;;;;;;;18.73;7.00;;;0.30;99.90;;;;;;5091848;28;20055;-69
2022/12/12 02:27:56;;;;;;;19.38;6.82;;;0.30;99.90;;;;;;5092214;28;20048;-68
2022/12/12 02:30:23;;;;;;;22.00;7.72;;;0.30;99.90;;;;;;5091705;28;20547;-68
2022/12/12 02:33:04;;;;;;;20.30;7.53;;;0.30;99.90;;;;;;5100199;28;20044;-71
2022/12/12 02:35:43;;;;;;;20.85;7.47;;;0.30;99.90;;;;;;5094304;28;20112;-68
2022/12/12 02:38:25;;;;;;;20.55;6.82;;;0.30;99.90;;;;;;5112781;28;20055;-68
2022/12/12 02:41:12;;;;;;;22.60;8.00;;;0.30;99.90;;;;;;5112389;28;20047;-71
2022/12/12 02:43:40;;;;;;;16.83;7.33;;;0.30;99.90;;;;;;5113177;28;20450;-68
2022/12/12 02:46:47;;;;;;;17.90;7.45;;;0.30;99.90;;;;;;5102360;28;20059;-69
2022/12/12 02:49:28;;;;;;;13.88;6.30;;;0.30;99.90;;;;;;5029416;28;20208;-68
2022/12/12 02:51:55;;;;;;;20.75;7.35;;;0.30;99.90;;;;;;5049083;28;20041;-68
2022/12/12 02:54:22;;;;;;;17.13;6.85;;;0.30;99.90;;;;;;5087119;28;20067;-68
2022/12/12 02:56:55;;;;;;;17.50;7.13;;;0.30;99.90;;;;;;5092070;28;20043;-68
2022/12/12 02:59:52;;;;;;;20.33;7.75;;;0.30;99.90;;;;;;5092326;28;20062;-68
2022/12/12 03:02:21;;;;;;;;;;;0.30;99.90;;;;;;5077031;28;20132;-68
2022/12/12 03:08:05;;;;;;;18.58;6.80;;;0.20;99.90;;;;;;5054092;28;20174;-68
2022/12/12 03:11:02;;;;;;;20.35;7.07;;;0.30;99.90;;;;;;5054036;28;20095;-70
2022/12/12 03:13:50;;;;;;;18.25;7.10;;;0.20;99.90;;;;;;5097745;28;20044;-70
2022/12/12 03:16:29;;;;;;;21.27;7.18;;;0.30;99.90;;;;;;5111581;28;20531;-70
2022/12/12 03:19:07;;;;;;;17.05;6.38;;;0.30;99.90;;;;;;5112287;28;20050;-73
2022/12/12 03:21:51;;;;;;;15.38;5.95;;;0.30;99.90;;;;;;5111695;28;20043;-70
2022/12/12 03:24:24;;;;;;;19.40;6.97;;;0.20;99.90;;;;;;5111494;28;20547;-70
2022/12/12 03:27:24;;;;;;;24.27;6.50;;;0.20;99.90;;;;;;5111864;28;20130;-70
2022/12/12 03:29:55;;;;;;;18.95;7.38;;;0.20;99.90;;;;;;5037013;28;20063;-70
2022/12/12 03:32:33;;;;;;;21.70;6.82;;;0.20;99.90;;;;;;5111918;28;20058;-70
2022/12/12 03:35:27;;;;;;;20.23;7.40;;;0.30;99.90;;;;;;5092428;28;20055;-70
2022/12/12 03:38:34;;;;;;;18.05;6.30;;;0.30;99.90;;;;;;5051586;28;20405;-69
2022/12/12 03:41:04;;;;;;;16.88;5.63;;;0.20;99.90;;;;;;5056142;28;20135;-72
2022/12/12 03:43:50;;;;;;;18.50;7.00;;;0.20;99.90;;;;;;5071348;28;20079;-71
2022/12/12 03:46:50;;;;;;;18.25;6.72;;;0.30;99.90;;;;;;5070763;28;20443;-70
2022/12/12 03:49:32;;;;;;;18.08;7.05;;;0.30;99.90;;;;;;5104936;28;20095;-69
2022/12/12 03:52:05;;;;;;;18.20;5.93;;;0.30;99.90;;;;;;5078384;28;20063;-72
2022/12/12 03:54:35;;;;;;;18.73;7.38;;;0.30;99.90;;;;;;5091016;28;20051;-70
2022/12/12 03:57:23;;;;;;;22.13;7.03;;;0.30;99.90;;;;;;5089115;28;20389;-70
2022/12/12 03:59:54;;;;;;;16.73;6.50;;;0.30;99.90;;;;;;5107441;28;20050;-69
2022/12/12 04:02:42;;;;;;;15.55;6.20;;;0.30;99.90;;;;;;5110828;28;20154;-70
2022/12/12 04:06:25;;;;;;;17.45;6.47;;;0.30;99.90;;;;;;5109693;28;20141;-71
2022/12/12 04:08:27;;;;;;;20.48;7.10;;;0.30;99.90;;;;;;5093306;28;20051;-70
2022/12/12 04:14:21;;;;;;;19.83;5.88;;;0.30;99.90;;;;;;5093395;28;20089;-70
2022/12/12 04:16:59;;;;;;;25.15;7.25;;;0.30;99.90;;;;;;5095881;28;20131;-70
2022/12/12 04:25:33;;;;;;;20.50;7.28;;;0.40;99.90;;;;;;5101423;28;20646;-69
2022/12/12 04:28:04;;;;;;;17.75;6.65;;;0.40;99.90;;;;;;5110953;28;20044;-69
2022/12/12 04:30:32;;;;;;;17.67;6.10;;;0.40;99.90;;;;;;5111121;28;20055;-69
2022/12/12 04:33:07;;;;;;;18.17;6.32;;;0.40;99.90;;;;;;5093371;28;20051;-69
2022/12/12 04:35:42;;;;;;;22.33;6.80;;;0.40;99.90;;;;;;5106957;28;20052;-69
2022/12/12 04:38:27;;;;;;;17.45;6.28;;;0.40;99.90;;;;;;5090302;28;20052;-70
2022/12/12 04:40:56;;;;;;;17.45;6.40;;;0.50;99.90;;;;;;5087525;28;20067;-70
2022/12/12 04:43:32;;;;;;;19.77;7.65;;;0.50;99.90;;;;;;5089908;28;20050;-69
2022/12/12 04:46:19;;;;;;;17.20;6.35;;;0.50;99.90;;;;;;5072822;28;20067;-70
2022/12/12 04:49:04;;;;;;;17.45;6.25;;;0.50;99.90;;;;;;5072087;28;20052;-70
2022/12/12 04:51:33;;;;;;;16.25;6.30;;;0.50;99.90;;;;;;5090433;28;20123;-70
2022/12/12 04:54:08;;;;;;;16.65;6.10;;;0.50;99.90;;;;;;5092920;28;20052;-69
2022/12/12 04:56:37;;;;;;;16.67;6.40;;;0.50;99.90;;;;;;5094552;28;20047;-70
2022/12/12 04:59:05;;;;;;;16.13;7.18;;;0.50;99.90;;;;;;5094365;28;20091;-73
2022/12/12 05:01:33;;;;;;;17.65;7.25;;;0.40;99.90;;;;;;5094543;28;20503;-70
2022/12/12 05:04:31;;;;;;;20.58;6.25;;;0.50;99.90;;;;;;5094759;28;20043;-71
2022/12/12 05:07:03;;;;;;;20.40;7.85;;;0.50;99.90;;;;;;5054453;28;20417;-70
2022/12/12 05:09:29;;;;;;;15.82;6.25;;;0.50;99.90;;;;;;5105478;28;20047;-70
2022/12/12 05:11:55;;;;;;;13.95;6.18;;;0.40;99.90;;;;;;5114670;28;20400;-70
2022/12/12 05:14:21;;;;;;;18.80;6.20;;;0.50;99.90;;;;;;5096309;28;20058;-70
2022/12/12 05:16:51;;;;;;;20.33;6.70;;;0.50;99.90;;;;;;5114785;28;20424;-70
2022/12/12 05:19:17;;;;;;;15.73;6.65;;;0.40;99.90;;;;;;5113295;28;20543;-70
2022/12/12 05:21:43;;;;;;;16.83;6.70;;;0.40;99.90;;;;;;5114559;28;20491;-70
2022/12/12 05:24:08;;;;;;;15.13;6.50;;;0.40;99.90;;;;;;5105420;28;20633;-70
2022/12/12 05:26:34;;;;;;;18.15;6.72;;;0.40;99.90;;;;;;5093975;28;20048;-70
2022/12/12 05:29:01;;;;;;;16.80;6.10;;;0.40;99.90;;;;;;5089833;28;20058;-70
2022/12/12 05:31:27;;;;;;;17.70;6.55;;;0.40;99.90;;;;;;5093672;28;20083;-70
2022/12/12 05:33:53;;;;;;;15.40;6.22;;;0.40;99.90;;;;;;5092913;28;20485;-70
2022/12/12 05:36:20;;;;;;;16.17;6.13;;;0.40;99.90;;;;;;5101528;28;20044;-70
2022/12/12 05:38:46;;;;;;;17.30;6.68;;;0.40;99.90;;;;;;5095843;28;20054;-70
2022/12/12 05:41:12;;;;;;;16.65;7.40;;;0.40;99.90;;;;;;5095164;28;20466;-70
2022/12/12 05:43:38;;;;;;;15.15;6.38;;;0.40;99.90;;;;;;5114353;28;20056;-69
2022/12/12 05:46:05;;;;;;;16.95;6.80;;;0.40;99.90;;;;;;5104964;28;20412;-72
2022/12/12 05:48:31;;;;;;;16.65;6.10;;;0.40;99.90;;;;;;5058989;28;20085;-70
2022/12/12 05:50:58;;;;;;;17.95;6.97;;;0.40;99.90;;;;;;5100738;28;20039;-70
2022/12/12 05:53:24;;;;;;;21.40;7.03;;;0.40;99.90;;;;;;5111247;28;20362;-70
2022/12/12 05:55:50;;;;;;;16.65;6.25;;;0.40;99.90;;;;;;5092570;28;20754;-70
2022/12/12 05:58:18;;;;;;;17.83;6.63;;;0.40;99.90;;;;;;5074829;28;20043;-69
2022/12/12 06:00:46;;;;;;;16.20;6.95;;;0.40;99.90;;;;;;5093122;28;20032;-70
2022/12/12 06:03:12;;;;;;;18.23;7.18;;;0.50;99.90;;;;;;5092571;28;20048;-70
2022/12/12 06:05:38;;;;;;;20.17;7.25;;;0.40;99.90;;;;;;5090498;28;20059;-70
2022/12/12 06:08:06;;;;;;;19.35;7.72;;;0.50;99.90;;;;;;5082567;28;20053;-70
2022/12/12 06:10:32;;;;;;;19.23;7.53;;;0.40;99.90;;;;;;5071128;28;20073;-70
2022/12/12 06:12:58;;;;;;;20.42;7.65;;;0.40;99.90;;;;;;5071362;28;20049;-69
2022/12/12 06:15:23;;;;;;;18.15;6.80;;;0.50;99.90;;;;;;5071001;28;20040;-70
2022/12/12 06:17:52;;;;;;;16.70;6.35;;;0.60;99.90;;;;;;5072035;28;20129;-70
2022/12/12 06:20:18;;;;;;;18.73;7.38;;;0.50;99.90;;;;;;5055275;28;20048;-70
2022/12/12 06:22:44;;;;;;;18.98;6.75;;;0.50;99.90;;;;;;5088482;28;20055;-70
2022/12/12 06:25:11;;;;;;;16.13;6.85;;;0.50;99.90;;;;;;5092256;28;20048;-73
2022/12/12 06:27:39;;;;;;;15.45;5.93;;;0.60;99.90;;;;;;5091599;28;20405;-70
2022/12/12 06:30:06;;;;;;;16.70;6.55;;;0.50;99.90;;;;;;5091550;28;20044;-70
2022/12/12 06:32:32;;;;;;;17.00;6.50;;;0.40;99.90;;;;;;5091204;28;20127;-70
2022/12/12 06:34:58;;;;;;;20.08;7.50;;;0.40;99.90;;;;;;5072537;28;20127;-71
2022/12/12 06:37:26;;;;;;;17.00;7.10;;;0.40;99.90;;;;;;5091200;28;20052;-70
2022/12/12 06:39:52;;;;;;;19.08;6.35;;;0.40;99.90;;;;;;5091403;28;20481;-70
2022/12/12 06:42:18;;;;;;;16.67;7.47;;;0.30;99.90;;;;;;5090799;28;20124;-70
2022/12/12 06:44:43;;;;;;;21.27;7.65;;;0.30;99.90;;;;;;5091647;28;20086;-70
2022/12/12 06:47:12;;;;;;;19.55;7.43;;;0.40;99.90;;;;;;5108123;28;20051;-70
2022/12/12 06:49:38;;;;;;;24.05;8.05;;;0.20;99.90;;;;;;5111177;28;20090;-70
2022/12/12 06:52:04;;;;;;;23.45;8.25;;;0.60;99.90;;;;;;5100856;28;20083;-70
2022/12/12 06:54:29;;;;;;;20.63;8.02;;;0.10;99.90;;;;;;5105642;28;20400;-70
2022/12/12 06:56:55;;;;;;;21.17;8.75;;;0.10;99.90;;;;;;5091059;28;20044;-69
2022/12/12 06:59:21;;;;;;;23.65;9.13;;;0.00;99.90;;;;;;5097094;28;20405;-69
2022/12/12 07:01:47;;;;;;;27.63;9.60;;;-0.10;99.90;;;;;;5111811;28;20488;-70
2022/12/12 07:04:13;;;;;;;24.67;9.27;;;-0.20;99.90;;;;;;5069215;28;1178943;-73
2022/12/12 07:06:39;;;;;;;24.33;8.70;;;-0.20;99.90;;;;;;5112350;28;20047;-71
2022/12/12 07:09:05;;;;;;;;;;;-0.30;99.90;;;;;;5103281;28;20047;-70
2022/12/12 07:11:31;;;;;;;24.77;8.85;;;-0.30;99.90;;;;;;5094934;28;19946;-72
2022/12/12 07:13:58;;;;;;;26.50;9.35;;;-0.40;99.90;;;;;;5094475;28;20106;-69
2022/12/12 07:16:24;;;;;;;25.55;7.97;;;-0.40;99.90;;;;;;5092739;28;20050;-69
2022/12/12 07:18:50;;;;;;;;;;;-0.50;99.90;;;;;;5103244;28;20051;-69
2022/12/12 07:21:18;;;;;;;26.52;9.77;;;-0.60;99.90;;;;;;5088248;28;20328;-71
2022/12/12 07:23:44;;;;;;;26.77;9.00;;;-0.60;99.90;;;;;;5071472;28;20052;-69
2022/12/12 07:26:16;;;;;;;29.70;10.70;;;-0.70;99.90;;;;;;5071053;28;20044;-72
2022/12/12 07:28:42;;;;;;;30.05;11.38;;;-0.70;99.90;;;;;;5071732;28;20044;-70
2022/12/12 07:31:10;;;;;;;25.05;10.07;;;-0.80;99.90;;;;;;5071351;28;20131;-70
2022/12/12 07:33:38;;;;;;;27.65;9.90;;;-0.90;99.90;;;;;;5084499;28;20851;-69
2022/12/12 07:36:04;;;;;;;32.47;9.32;;;-0.70;99.90;;;;;;5081078;28;20044;-69
2022/12/12 07:38:30;;;;;;;25.80;9.98;;;-0.90;99.90;;;;;;5091092;28;20051;-69
2022/12/12 07:41:01;;;;;;;;;;;-1.00;99.90;;;;;;5091365;28;20501;-70
2022/12/12 07:43:27;;;;;;;26.85;8.82;;;-1.00;99.90;;;;;;5090754;28;19924;-69
2022/12/12 07:45:53;;;;;;;25.95;9.70;;;-1.10;99.90;;;;;;5073364;28;20048;-69
2022/12/12 07:48:19;;;;;;;34.20;10.52;;;-1.20;99.90;;;;;;5089864;28;20536;-69
2022/12/12 07:50:44;;;;;;;30.75;9.48;;;-1.20;99.90;;;;;;5072253;28;20048;-70
2022/12/12 07:53:10;;;;;;;32.10;11.05;;;-1.30;99.90;;;;;;5091177;28;20052;-69
2022/12/12 07:55:39;;;;;;;30.90;10.90;;;-1.30;99.90;;;;;;5080914;28;20044;-70
2022/12/12 07:58:05;;;;;;;28.98;10.30;;;-1.30;99.90;;;;;;5104150;28;20397;-70
2022/12/12 08:00:30;;;;;;;28.20;8.88;;;-1.30;99.90;;;;;;5092982;28;20048;-69
2022/12/12 08:02:56;;;;;;;27.38;10.38;;;-1.40;99.90;;;;;;5111637;28;20040;-69
2022/12/12 08:05:22;;;;;;;23.33;8.60;;;-1.40;99.90;;;;;;5101058;28;20094;-69
2022/12/12 08:07:48;;;;;;;29.40;9.80;;;-1.40;99.90;;;;;;5100164;28;20059;-69
2022/12/12 08:10:14;;;;;;;;;;;-1.40;99.90;;;;;;5091381;28;20040;-69
2022/12/12 08:12:39;;;;;;;28.63;10.00;;;-1.50;99.90;;;;;;5071161;28;19945;-70
2022/12/12 08:15:06;;;;;;;27.55;9.25;;;-1.50;99.90;;;;;;5090884;28;20443;-74
2022/12/12 08:17:31;;;;;;;25.02;10.07;;;-1.50;99.90;;;;;;5100703;28;20051;-73
2022/12/12 08:19:57;;;;;;;26.17;9.73;;;-1.50;99.90;;;;;;5091844;28;20412;-74
2022/12/12 08:22:23;;;;;;;31.48;9.55;;;-1.50;99.90;;;;;;5089342;28;20052;-71
2022/12/12 08:24:49;;;;;;;25.05;9.52;;;-1.50;99.90;;;;;;5072325;28;20055;-66
2022/12/12 08:27:15;;;;;;;28.33;10.20;;;-1.50;99.90;;;;;;5090485;28;20047;-67
2022/12/12 08:29:41;;;;;;;26.27;9.25;;;-1.50;99.90;;;;;;5072228;28;20900;-67
2022/12/12 08:32:06;;;;;;;27.85;9.68;;;-1.50;99.90;;;;;;5090808;28;20605;-67
2022/12/12 08:34:32;;;;;;;29.33;10.93;;;-1.60;99.90;;;;;;5089312;28;20051;-66
2022/12/12 08:36:58;;;;;;;29.80;10.05;;;-1.60;99.90;;;;;;5094072;28;20912;-66
2022/12/12 08:39:24;;;;;;;30.52;11.25;;;-1.50;99.90;;;;;;5070192;28;20447;-66
2022/12/12 08:41:50;;;;;;;29.40;11.30;;;-1.50;99.90;;;;;;5071951;28;20093;-67
2022/12/12 08:44:18;;;;;;;28.15;9.52;;;-1.50;99.90;;;;;;5089759;28;20048;-66
2022/12/12 08:46:44;;;;;;;29.10;9.75;;;-1.50;99.90;;;;;;5090091;28;20048;-66
2022/12/12 08:49:10;;;;;;;;;;;-1.50;99.90;;;;;;5088811;28;20040;-69
2022/12/12 08:51:39;;;;;;;25.98;10.15;;;-1.50;99.90;;;;;;5089053;28;20018;-67
2022/12/12 08:54:05;;;;;;;25.95;11.00;;;-1.50;99.90;;;;;;5089105;28;20784;-67
2022/12/12 08:56:31;;;;;;;27.17;10.02;;;-1.40;99.90;;;;;;5091601;28;20040;-70
2022/12/12 08:58:57;;;;;;;28.65;9.82;;;-1.40;99.90;;;;;;5087102;28;20051;-70
2022/12/12 09:01:25;;;;;;;27.00;10.93;;;-1.30;99.90;;;;;;5088772;28;20040;-72
2022/12/12 09:03:52;;;;;;;30.42;11.60;;;-1.30;99.90;;;;;;5088712;28;21474;-70
2022/12/12 09:06:19;;;;;;;32.90;11.25;;;-1.20;99.90;;;;;;5085244;28;20432;-70
2022/12/12 09:08:47;;;;;;;;;;;-1.10;99.90;;;;;;5086682;28;20399;-70
2022/12/12 09:11:13;;;;;;;31.20;11.18;;;-0.70;99.90;;;;;;5070559;28;19927;-70
2022/12/12 09:13:39;;;;;;;22.05;8.52;;;-0.80;99.90;;;;;;5088320;28;20071;-70
2022/12/12 09:16:06;;;;;;;24.17;8.68;;;-0.90;99.90;;;;;;5070817;28;20094;-71
2022/12/12 09:18:32;;;;;;;26.42;9.30;;;-0.90;99.90;;;;;;5088961;28;20052;-70
2022/12/12 09:20:58;;;;;;;;;;;-0.80;99.90;;;;;;5089542;28;20048;-71
2022/12/12 09:23:25;;;;;;;23.77;8.75;;;-0.80;99.90;;;;;;5071123;28;20557;-70
2022/12/12 09:25:51;;;;;;;28.88;9.63;;;-0.80;99.90;;;;;;5087197;28;20047;-71
2022/12/12 09:28:17;;;;;;;;;;;-0.70;99.90;;;;;;5088145;28;20397;-71
2022/12/12 09:30:44;;;;;;;27.20;10.20;;;-0.60;99.90;;;;;;5086975;28;19920;-71
2022/12/12 09:33:10;;;;;;;28.52;10.43;;;-0.50;99.90;;;;;;5088694;28;20048;-72
2022/12/12 09:35:36;;;;;;;36.60;13.23;;;-0.40;99.90;;;;;;5086352;28;20036;-76
2022/12/12 09:38:03;;;;;;;33.08;12.05;;;-0.30;99.90;;;;;;5093669;28;20448;-72
2022/12/12 09:40:46;;;;;;;33.50;11.07;;;-0.30;99.90;;;;;;5087430;28;20048;-73
2022/12/12 09:43:18;;;;;;;35.05;12.25;;;-0.20;99.90;;;;;;5069606;28;20044;-70
2022/12/12 09:45:45;;;;;;;33.15;12.50;;;0.00;99.90;;;;;;5081811;28;20040;-70
2022/12/12 09:48:23;;;;;;;34.38;12.38;;;0.40;99.90;;;;;;5055522;28;20133;-70
2022/12/12 09:50:49;;;;;;;33.55;11.30;;;0.10;99.90;;;;;;5071654;28;20076;-71
2022/12/12 09:53:15;;;;;;;;;;;0.10;99.90;;;;;;5073562;28;20045;-71
2022/12/12 09:56:06;;;;;;;39.05;13.50;;;0.20;99.90;;;;;;5072797;28;19924;-70
2022/12/12 09:58:38;;;;;;;39.05;11.90;;;0.20;99.90;;;;;;5078212;28;20052;-72
2022/12/12 10:01:38;;;;;;;43.55;13.70;;;0.30;99.90;;;;;;5072725;28;20048;-70
2022/12/12 10:04:26;;;;;;;38.80;12.63;;;0.40;99.90;;;;;;5049159;28;20379;-70
2022/12/12 10:07:10;;;;;;;34.90;12.93;;;0.40;99.90;;;;;;5072248;28;20124;-70
2022/12/12 10:10:00;;;;;;;32.38;12.27;;;0.50;99.90;;;;;;5054310;28;20052;-70
2022/12/12 10:12:28;;;;;;;39.20;12.68;;;0.60;99.90;;;;;;5072457;28;20051;-71
2022/12/12 10:15:01;;;;;;;40.10;13.77;;;0.60;99.90;;;;;;5054396;28;20529;-71
2022/12/12 10:17:39;;;;;;;39.20;12.55;;;0.70;99.90;;;;;;5072685;28;20044;-70
2022/12/12 10:20:17;;;;;;;42.83;14.50;;;0.70;99.90;;;;;;5083702;28;20047;-70
2022/12/12 10:22:59;;;;;;;39.80;14.45;;;0.80;99.90;;;;;;5094507;28;20048;-70
2022/12/12 10:25:50;;;;;;;37.08;12.65;;;0.80;99.90;;;;;;5074486;28;20044;-70
2022/12/12 10:28:18;;;;;;;36.88;12.43;;;0.90;99.90;;;;;;5058470;28;20113;-70
2022/12/12 10:31:02;;;;;;;35.42;11.35;;;1.00;99.90;;;;;;5088246;28;20051;-71
2022/12/12 10:33:41;;;;;;;34.00;13.05;;;1.00;99.90;;;;;;5084214;28;20123;-69
2022/12/12 10:36:22;;;;;;;36.60;12.32;;;1.10;99.90;;;;;;5069173;28;20059;-69
2022/12/12 10:39:20;;;;;;;32.70;11.65;;;1.10;99.90;;;;;;5087135;28;20448;-70
2022/12/12 10:42:14;;;;;;;38.63;14.65;;;1.10;99.90;;;;;;5087142;28;20463;-70
2022/12/12 10:44:52;;;;;;;40.53;13.68;;;1.20;99.90;;;;;;5087102;28;20054;-70
2022/12/12 10:47:18;;;;;;;32.22;12.07;;;1.20;99.90;;;;;;5095503;28;20055;-69
2022/12/12 10:49:44;;;;;;;34.22;13.27;;;1.30;99.90;;;;;;5085177;28;20069;-69
2022/12/12 10:52:19;;;;;;;33.92;12.82;;;1.30;99.90;;;;;;5090612;28;20515;-69
2022/12/12 10:54:51;;;;;;;37.55;12.75;;;1.30;99.90;;;;;;5090767;28;20052;-70
2022/12/12 10:57:43;;;;;;;32.67;11.05;;;1.40;99.90;;;;;;5087665;28;20047;-70
2022/12/12 11:00:36;;;;;;;32.90;12.10;;;1.40;99.90;;;;;;5089552;28;20052;-70
2022/12/12 11:03:27;;;;;;;32.83;11.80;;;1.40;99.90;;;;;;5090347;28;20048;-71
2022/12/12 11:05:55;;;;;;;33.25;12.00;;;1.40;99.90;;;;;;5089725;28;20473;-69
2022/12/12 11:08:26;;;;;;;31.75;11.13;;;1.40;99.90;;;;;;5091324;28;20134;-70
2022/12/12 11:11:02;;;;;;;32.08;10.68;;;1.40;99.90;;;;;;5090434;28;20591;-69
2022/12/12 11:13:29;;;;;;;36.40;12.83;;;1.50;99.90;;;;;;5071192;28;20065;-70
2022/12/12 11:16:12;;;;;;;29.95;11.70;;;1.50;99.90;;;;;;5089194;28;20041;-70
2022/12/12 11:18:38;;;;;;;27.40;11.43;;;1.50;99.90;;;;;;5088654;28;20040;-70
2022/12/12 11:21:06;;;;;;;30.73;11.88;;;1.60;99.90;;;;;;5087630;28;20492;-70
2022/12/12 11:23:35;;;;;;;25.30;10.55;;;1.60;99.90;;;;;;5090017;28;20048;-70
2022/12/12 11:26:12;;;;;;;23.48;9.95;;;1.70;99.90;;;;;;5089272;28;20051;-71
2022/12/12 11:28:40;;;;;;;30.80;10.07;;;1.70;99.90;;;;;;5086849;28;20055;-70
2022/12/12 11:31:10;;;;;;;30.83;11.02;;;1.80;99.90;;;;;;5088665;28;20048;-70
2022/12/12 11:33:49;;;;;;;33.20;10.38;;;1.80;99.90;;;;;;5088781;28;20043;-70
2022/12/12 11:36:18;;;;;;;25.45;10.98;;;1.90;99.90;;;;;;5090842;28;20040;-70
2022/12/12 11:38:53;;;;;;;28.55;10.65;;;2.00;99.90;;;;;;5090035;28;20534;-71
2022/12/12 11:41:19;;;;;;;27.73;10.25;;;2.10;99.90;;;;;;5071757;28;20429;-70
2022/12/12 11:43:47;;;;;;;30.38;10.32;;;2.10;99.90;;;;;;5090393;28;20075;-71
2022/12/12 11:46:13;;;;;;;23.33;9.15;;;2.20;99.90;;;;;;5090091;28;20044;-70
2022/12/12 11:48:50;;;;;;;24.55;9.48;;;2.30;99.90;;;;;;5085187;28;20447;-70
2022/12/12 11:51:36;;;;;;;21.85;8.65;;;2.30;99.90;;;;;;5086818;28;20116;-72
2022/12/12 11:54:24;;;;;;;21.25;8.68;;;2.30;99.90;;;;;;5089601;28;20148;-71
2022/12/12 11:57:04;;;;;;;24.65;8.90;;;2.20;99.90;;;;;;5094158;28;20145;-70
2022/12/12 11:59:56;;;;;;;20.25;7.45;;;2.30;99.90;;;;;;5089378;28;20044;-70
2022/12/12 12:02:59;;;;;;;20.40;7.63;;;2.20;99.90;;;;;;5088336;28;20052;-70
2022/12/12 12:05:53;;;;;;;20.98;7.30;;;2.20;99.90;;;;;;5070270;28;20409;-71
2022/12/12 12:08:25;;;;;;;23.35;7.32;;;2.10;99.90;;;;;;5072492;28;20397;-70
2022/12/12 12:11:25;;;;;;;21.10;7.90;;;2.20;99.90;;;;;;5081921;28;20123;-70
2022/12/12 12:14:06;;;;;;;19.85;7.32;;;2.20;99.90;;;;;;5088829;28;20052;-70
2022/12/12 12:16:53;;;;;;;22.58;8.65;;;2.20;99.90;;;;;;5089934;28;20036;-70
2022/12/12 12:19:29;;;;;;;22.92;7.50;;;2.20;99.90;;;;;;5069465;28;20050;-71
2022/12/12 12:22:00;;;;;;;23.08;8.45;;;2.10;99.90;;;;;;5089795;28;20051;-70
2022/12/12 12:24:50;;;;;;;17.38;7.35;;;2.10;99.90;;;;;;5079989;28;20079;-70
2022/12/12 12:27:37;;;;;;;23.65;8.10;;;2.10;99.90;;;;;;5083805;28;20524;-71
2022/12/12 12:30:21;;;;;;;;;;;2.00;99.90;;;;;;5085889;28;20178;-70
2022/12/12 12:33:18;;;;;;;20.25;8.32;;;2.00;99.90;;;;;;5085914;28;19967;-70
2022/12/12 12:36:08;;;;;;;22.63;9.35;;;1.90;99.90;;;;;;5066178;28;20447;-70
2022/12/12 12:39:07;;;;;;;27.50;9.95;;;2.00;99.90;;;;;;5089467;28;20036;-69
2022/12/12 12:41:42;;;;;;;29.60;11.27;;;2.10;99.90;;;;;;5086344;28;20048;-70
2022/12/12 12:44:56;;;;;;;29.95;10.18;;;2.20;99.90;;;;;;5085566;28;20422;-70
2022/12/12 12:47:22;;;;;;;27.92;11.13;;;2.30;99.90;;;;;;5099576;28;20071;-70
2022/12/12 12:50:00;;;;;;;30.58;10.60;;;2.40;99.90;;;;;;5088829;28;20079;-70
2022/12/12 12:52:37;;;;;;;29.08;11.15;;;2.40;99.90;;;;;;5086473;28;20048;-70
2022/12/12 12:55:32;;;;;;;26.25;10.10;;;2.30;99.90;;;;;;5084344;28;20192;-71
2022/12/12 12:58:02;;;;;;;25.80;9.63;;;2.30;99.90;;;;;;5082513;28;20059;-70
2022/12/12 13:00:29;;;;;;;27.35;11.07;;;2.20;99.90;;;;;;5085189;28;20641;-71
2022/12/12 13:03:14;;;;;;;32.92;12.82;;;2.30;99.90;;;;;;5086576;28;20044;-72
2022/12/12 13:05:51;;;;;;;31.58;11.57;;;2.20;99.90;;;;;;5045728;28;20049;-70
2022/12/12 13:08:23;;;;;;;35.30;12.13;;;2.20;99.90;;;;;;5046789;28;20041;-71
2022/12/12 13:10:53;;;;;;;34.28;12.10;;;2.20;99.90;;;;;;5044991;28;20075;-70
2022/12/12 13:13:37;;;;;;;35.15;12.82;;;2.20;99.90;;;;;;5048475;28;20037;-73
2022/12/12 13:16:13;;;;;;;33.15;11.85;;;2.20;99.90;;;;;;5048634;28;20127;-70
2022/12/12 13:18:40;;;;;;;33.13;12.40;;;2.20;99.90;;;;;;5048584;28;20045;-70
2022/12/12 13:21:40;;;;;;;32.78;12.50;;;2.20;99.90;;;;;;5043956;28;20068;-70
2022/12/12 13:24:18;;;;;;;32.05;11.95;;;2.10;99.90;;;;;;5049230;28;20053;-71
2022/12/12 13:26:50;;;;;;;28.88;10.63;;;2.10;99.90;;;;;;5050448;28;20037;-69